Time;durP1;ratioP1;P1;durP2;ratioP2;P2;SDS_P1;SDS_P2;PMS_P1;PMS_P2;Temp;Humidity;BMP_temperature;BMP_pressure;BME280_temperature;BME280_humidity;BME280_pressure;Samples;Min_cycle;Max_cycle;Signal;HPM_P1;HPM_P2
2023/03/21 00:01:13;;;;;;;3.63;2.08;;;9.80;99.90;;;;;;4999652;28;20033;-68
2023/03/21 00:03:40;;;;;;;2.70;1.63;;;9.80;99.90;;;;;;4983235;28;20032;-68
2023/03/21 00:06:11;;;;;;;5.97;1.90;;;9.80;99.90;;;;;;4993838;28;20109;-68
2023/03/21 00:08:38;;;;;;;3.05;1.65;;;9.90;99.90;;;;;;5000558;28;20048;-68
2023/03/21 00:11:08;;;;;;;8.27;2.33;;;9.90;99.90;;;;;;4994391;28;20036;-68
2023/03/21 00:13:37;;;;;;;4.20;1.50;;;9.90;99.90;;;;;;5000754;28;20088;-68
2023/03/21 00:16:15;;;;;;;5.65;2.28;;;10.00;99.90;;;;;;4994514;28;20112;-68
2023/03/21 00:18:45;;;;;;;3.10;1.80;;;10.00;99.90;;;;;;4984409;28;20105;-68
2023/03/21 00:21:17;;;;;;;6.05;1.60;;;10.00;99.90;;;;;;5010059;28;20026;-68
2023/03/21 00:23:45;;;;;;;7.47;2.28;;;10.00;99.90;;;;;;5001545;28;20027;-68
2023/03/21 00:26:11;;;;;;;3.78;1.90;;;10.00;99.90;;;;;;5010181;28;20083;-68
2023/03/21 00:28:39;;;;;;;3.90;2.30;;;10.00;99.90;;;;;;4999964;28;20035;-68
2023/03/21 00:31:06;;;;;;;2.92;2.10;;;10.00;99.90;;;;;;5010698;28;20034;-68
2023/03/21 00:33:34;;;;;;;6.72;2.13;;;9.90;99.90;;;;;;4998667;28;20512;-68
2023/03/21 00:36:01;;;;;;;5.43;1.63;;;9.90;99.90;;;;;;4994047;28;20038;-68
2023/03/21 00:38:28;;;;;;;3.22;1.52;;;9.90;99.90;;;;;;4980615;28;20096;-68
2023/03/21 00:40:53;;;;;;;6.15;1.77;;;9.90;99.90;;;;;;4993569;28;20034;-68
2023/03/21 00:43:22;;;;;;;7.50;3.00;;;9.80;99.90;;;;;;4980991;28;20474;-68
2023/03/21 00:45:50;;;;;;;2.58;1.55;;;9.80;99.90;;;;;;5011257;28;20033;-66
2023/03/21 00:48:17;;;;;;;3.10;1.58;;;9.80;99.90;;;;;;4981607;28;20034;-69
2023/03/21 00:50:45;;;;;;;5.45;2.05;;;9.80;99.90;;;;;;5010296;28;20037;-67
2023/03/21 00:53:13;;;;;;;4.45;1.70;;;9.80;99.90;;;;;;4981895;28;20394;-67
2023/03/21 00:55:39;;;;;;;4.30;1.75;;;9.80;99.90;;;;;;5009605;28;20112;-67
2023/03/21 00:58:05;;;;;;;3.30;1.90;;;9.80;99.90;;;;;;5000357;28;20109;-67
2023/03/21 01:00:32;;;;;;;5.05;1.83;;;9.80;99.90;;;;;;4990860;28;20520;-67
2023/03/21 01:03:04;;;;;;;3.35;1.58;;;9.80;99.90;;;;;;4983240;28;20087;-68
2023/03/21 01:08:22;;;;;;;4.95;2.13;;;9.80;99.90;;;;;;4997786;28;20033;-67
2023/03/21 01:10:50;;;;;;;6.60;2.35;;;9.70;99.90;;;;;;4993231;28;20446;-67
2023/03/21 01:13:20;;;;;;;3.42;2.10;;;9.70;99.90;;;;;;4998218;28;20084;-67
2023/03/21 01:15:53;;;;;;;4.70;1.50;;;9.70;99.90;;;;;;5009904;28;20030;-68
2023/03/21 01:18:23;;;;;;;5.28;2.03;;;9.70;99.90;;;;;;4997590;28;20065;-68
2023/03/21 01:20:49;;;;;;;4.32;1.98;;;9.60;99.90;;;;;;4993645;28;20679;-67
2023/03/21 01:23:16;;;;;;;9.63;2.13;;;9.60;99.90;;;;;;4998285;28;20045;-68
2023/03/21 01:25:42;;;;;;;4.55;1.98;;;9.60;99.90;;;;;;5009912;28;20033;-67
2023/03/21 01:28:09;;;;;;;5.18;2.38;;;9.60;99.90;;;;;;4999525;28;20018;-68
2023/03/21 01:30:35;;;;;;;4.53;2.55;;;9.60;99.90;;;;;;5008863;28;20030;-67
2023/03/21 01:33:01;;;;;;;4.75;1.85;;;9.60;99.90;;;;;;4982455;28;20034;-68
2023/03/21 01:35:27;;;;;;;7.28;2.15;;;9.60;99.90;;;;;;5007775;28;20456;-68
2023/03/21 01:37:53;;;;;;;5.97;2.00;;;9.60;99.90;;;;;;5001458;28;20030;-68
2023/03/21 01:40:25;;;;;;;4.50;2.17;;;9.60;99.90;;;;;;5006425;28;20069;-68
2023/03/21 01:42:51;;;;;;;5.70;1.70;;;9.60;99.90;;;;;;5001599;28;20026;-68
2023/03/21 01:46:13;;;;;;;3.35;1.92;;;9.60;99.90;;;;;;5006007;28;20026;-68
2023/03/21 01:48:42;;;;;;;2.35;1.40;;;9.60;99.90;;;;;;4999312;28;20116;-67
2023/03/21 01:51:11;;;;;;;2.78;1.70;;;9.50;99.90;;;;;;4992187;28;20030;-68
2023/03/21 01:53:38;;;;;;;2.00;1.25;;;9.50;99.90;;;;;;4981212;28;20411;-68
2023/03/21 01:56:25;;;;;;;6.93;2.15;;;9.50;99.90;;;;;;4992866;28;20032;-68
2023/03/21 01:58:55;;;;;;;4.03;1.80;;;9.50;99.90;;;;;;4974626;28;20038;-68
2023/03/21 02:01:22;;;;;;;3.70;1.85;;;9.50;99.90;;;;;;4971971;28;20386;-68
2023/03/21 02:03:50;;;;;;;4.63;2.30;;;9.50;99.90;;;;;;5000226;28;20448;-68
2023/03/21 02:07:04;;;;;;;4.30;2.17;;;9.60;99.90;;;;;;4968063;28;20058;-67
2023/03/21 02:09:33;;;;;;;7.65;2.13;;;9.60;99.90;;;;;;4979181;28;20045;-68
2023/03/21 02:12:00;;;;;;;5.25;2.55;;;9.60;99.90;;;;;;4980913;28;20045;-68
2023/03/21 02:14:29;;;;;;;8.57;2.58;;;9.60;99.90;;;;;;4984746;28;20049;-67
2023/03/21 02:17:10;;;;;;;3.72;1.85;;;9.50;99.90;;;;;;4975013;28;20042;-68
2023/03/21 02:20:10;;;;;;;5.00;1.50;;;9.50;99.90;;;;;;5002226;28;20026;-68
2023/03/21 02:23:19;;;;;;;6.45;1.77;;;9.60;99.90;;;;;;5003120;28;20034;-67
2023/03/21 02:26:32;;;;;;;8.63;2.42;;;9.60;99.90;;;;;;5009103;28;20038;-68
2023/03/21 02:29:44;;;;;;;5.70;1.75;;;9.60;99.90;;;;;;4979789;28;20482;-68
2023/03/21 02:33:04;;;;;;;9.45;1.92;;;9.50;99.90;;;;;;4997530;28;20165;-68
2023/03/21 02:35:51;;;;;;;3.05;1.70;;;9.60;99.90;;;;;;4947697;29;20578;-68
2023/03/21 02:38:39;;;;;;;4.30;1.83;;;9.50;99.90;;;;;;4940511;29;20110;-68
2023/03/21 02:41:38;;;;;;;5.65;2.08;;;9.50;99.90;;;;;;4921744;29;20488;-68
2023/03/21 02:44:43;;;;;;;6.75;3.33;;;9.50;99.90;;;;;;4935246;29;20036;-68
2023/03/21 02:47:27;;;;;;;8.18;2.40;;;9.50;99.90;;;;;;4922648;29;20651;-68
2023/03/21 02:50:31;;;;;;;3.97;2.13;;;9.50;99.90;;;;;;4921227;29;20046;-68
2023/03/21 02:52:59;;;;;;;2.50;1.55;;;9.50;99.90;;;;;;4909126;29;20433;-68
2023/03/21 02:55:29;;;;;;;4.13;1.48;;;9.50;99.90;;;;;;4933314;29;20039;-67
2023/03/21 02:57:58;;;;;;;3.28;1.83;;;9.60;99.90;;;;;;4927572;29;20633;-68
2023/03/21 03:00:33;;;;;;;3.60;1.80;;;9.70;99.90;;;;;;4948737;29;20551;-68
2023/03/21 03:02:59;;;;;;;11.93;2.10;;;9.70;99.90;;;;;;4927394;29;20538;-68
2023/03/21 03:05:33;;;;;;;8.38;1.90;;;9.60;99.90;;;;;;4963165;28;20034;-68
2023/03/21 03:08:30;;;;;;;2.20;1.27;;;9.70;99.90;;;;;;4996989;23;20038;-66
2023/03/21 03:11:40;;;;;;;3.63;1.58;;;9.70;99.90;;;;;;4983588;28;20046;-66
2023/03/21 03:14:46;;;;;;;5.45;2.08;;;9.70;99.90;;;;;;4994449;28;20069;-66
2023/03/21 03:17:40;;;;;;;2.90;1.63;;;9.60;99.90;;;;;;4971720;28;20407;-66
2023/03/21 03:20:40;;;;;;;3.70;2.15;;;9.60;99.90;;;;;;4995210;28;20069;-66
2023/03/21 03:23:42;;;;;;;3.65;1.77;;;9.60;99.90;;;;;;4992309;28;20045;-66
2023/03/21 03:26:20;;;;;;;3.97;2.45;;;9.50;99.90;;;;;;4984990;28;20033;-66
2023/03/21 03:28:53;;;;;;;2.67;1.58;;;9.50;99.90;;;;;;4981334;28;20038;-66
2023/03/21 03:31:36;;;;;;;5.60;1.92;;;9.50;99.90;;;;;;4958993;28;20482;-66
2023/03/21 03:34:11;;;;;;;5.15;1.58;;;9.50;99.90;;;;;;4960740;28;20034;-66
2023/03/21 03:36:46;;;;;;;3.17;1.50;;;9.50;99.90;;;;;;4992960;28;20049;-66
2023/03/21 03:39:14;;;;;;;3.45;1.88;;;9.40;99.90;;;;;;4982591;28;20113;-66
2023/03/21 03:42:20;;;;;;;3.40;1.60;;;9.40;99.90;;;;;;4993607;28;20025;-67
2023/03/21 03:44:47;;;;;;;5.50;1.80;;;9.40;99.90;;;;;;4985917;28;20092;-67
2023/03/21 03:47:31;;;;;;;3.35;1.73;;;9.40;99.90;;;;;;4986578;28;20445;-67
2023/03/21 03:50:16;;;;;;;3.70;1.50;;;9.40;99.90;;;;;;4976540;28;20034;-67
2023/03/21 03:53:02;;;;;;;4.50;1.73;;;9.40;99.90;;;;;;4989084;28;20038;-67
2023/03/21 03:55:33;;;;;;;3.60;2.03;;;9.50;99.90;;;;;;4988067;28;20029;-67
2023/03/21 03:58:00;;;;;;;4.65;1.83;;;9.50;99.90;;;;;;4967134;28;20033;-66
2023/03/21 04:00:30;;;;;;;3.17;1.73;;;9.40;99.90;;;;;;4995296;28;20043;-66
2023/03/21 04:02:58;;;;;;;5.47;1.75;;;9.40;99.90;;;;;;4962153;28;20061;-67
2023/03/21 04:05:25;;;;;;;6.43;2.45;;;9.40;99.90;;;;;;4979369;28;20034;-67
2023/03/21 04:07:51;;;;;;;8.52;2.10;;;9.30;99.90;;;;;;5008070;28;20521;-67
2023/03/21 04:10:19;;;;;;;3.00;1.83;;;9.30;99.90;;;;;;4984342;28;20037;-67
2023/03/21 04:12:45;;;;;;;5.53;2.95;;;9.30;99.90;;;;;;4999241;28;20495;-67
2023/03/21 04:15:11;;;;;;;3.80;2.22;;;9.30;99.90;;;;;;4988306;28;20026;-66
2023/03/21 04:17:38;;;;;;;4.20;2.33;;;9.20;99.90;;;;;;5000009;28;20026;-67
2023/03/21 04:20:06;;;;;;;6.72;2.15;;;9.20;99.90;;;;;;4974041;28;20069;-66
2023/03/21 04:22:33;;;;;;;3.70;2.00;;;9.10;99.90;;;;;;4993700;28;20110;-67
2023/03/21 04:25:00;;;;;;;13.02;2.22;;;9.10;99.90;;;;;;4964382;28;20058;-67
2023/03/21 04:27:27;;;;;;;4.10;2.10;;;9.10;99.90;;;;;;4985619;28;20034;-67
2023/03/21 04:29:52;;;;;;;4.10;1.67;;;9.10;99.90;;;;;;5001646;28;20032;-67
2023/03/21 04:32:18;;;;;;;12.32;2.42;;;9.10;99.90;;;;;;5002939;28;20037;-66
2023/03/21 04:34:52;;;;;;;5.68;2.83;;;9.10;99.90;;;;;;5001205;28;20432;-67
2023/03/21 04:37:22;;;;;;;3.63;2.20;;;9.00;99.90;;;;;;4979227;28;20026;-67
2023/03/21 04:39:49;;;;;;;4.00;1.90;;;9.00;99.90;;;;;;4989750;28;20042;-67
2023/03/21 04:42:17;;;;;;;3.03;1.88;;;9.00;99.90;;;;;;5003106;28;20034;-67
2023/03/21 04:44:47;;;;;;;7.03;2.33;;;9.00;99.90;;;;;;5000877;28;20062;-67
2023/03/21 04:47:14;;;;;;;5.22;2.25;;;9.00;99.90;;;;;;4985295;28;20053;-67
2023/03/21 04:49:42;;;;;;;3.20;2.00;;;9.00;99.90;;;;;;5001336;28;20494;-67
2023/03/21 04:52:08;;;;;;;4.05;2.40;;;9.00;99.90;;;;;;5001882;28;20026;-67
2023/03/21 04:54:34;;;;;;;6.13;2.60;;;9.00;99.90;;;;;;5000907;28;20454;-67
2023/03/21 04:57:00;;;;;;;4.22;1.98;;;9.00;99.90;;;;;;4985325;28;20030;-67
2023/03/21 04:59:25;;;;;;;6.90;4.10;;;9.00;99.90;;;;;;5000704;28;20706;-67
2023/03/21 05:01:51;;;;;;;7.97;3.08;;;8.90;99.90;;;;;;4983374;28;20036;-66
2023/03/21 05:04:18;;;;;;;2.90;1.60;;;8.90;99.90;;;;;;4994251;28;20501;-66
2023/03/21 05:06:45;;;;;;;5.03;2.45;;;8.80;99.90;;;;;;5009367;28;20512;-66
2023/03/21 05:09:12;;;;;;;4.00;2.25;;;8.80;99.90;;;;;;4981417;28;20041;-67
2023/03/21 05:11:40;;;;;;;3.85;1.98;;;8.90;99.90;;;;;;4978917;28;20362;-67
2023/03/21 05:14:08;;;;;;;9.32;2.53;;;8.80;99.90;;;;;;4993612;28;20035;-66
2023/03/21 05:16:37;;;;;;;8.60;2.88;;;8.80;99.90;;;;;;4973539;28;20038;-67
2023/03/21 05:19:04;;;;;;;4.07;2.47;;;8.80;99.90;;;;;;4993493;28;20030;-67
2023/03/21 05:21:40;;;;;;;7.97;2.50;;;8.80;99.90;;;;;;5007438;28;20034;-67
2023/03/21 05:24:12;;;;;;;6.50;3.45;;;8.80;99.90;;;;;;4993168;28;20022;-67
2023/03/21 05:26:40;;;;;;;2.60;1.95;;;8.80;99.90;;;;;;4991673;28;20034;-67
2023/03/21 05:29:06;;;;;;;6.28;2.70;;;8.90;99.90;;;;;;4976287;28;20520;-66
2023/03/21 05:31:32;;;;;;;4.75;2.35;;;8.90;99.90;;;;;;5008224;28;20049;-67
2023/03/21 05:33:57;;;;;;;4.63;3.03;;;8.80;99.90;;;;;;4994471;28;20034;-67
2023/03/21 05:36:23;;;;;;;7.97;2.78;;;8.70;99.90;;;;;;5006717;28;20094;-67
2023/03/21 05:38:50;;;;;;;8.60;3.38;;;8.70;99.90;;;;;;4976420;28;20068;-67
2023/03/21 05:41:17;;;;;;;4.40;2.53;;;8.70;99.90;;;;;;4970002;28;20426;-67
2023/03/21 05:43:43;;;;;;;3.33;2.10;;;8.60;99.90;;;;;;4982966;28;20030;-68
2023/03/21 05:46:10;;;;;;;7.05;2.95;;;8.50;99.90;;;;;;4985845;28;20030;-67
2023/03/21 05:48:36;;;;;;;9.35;3.80;;;8.40;99.90;;;;;;4956083;28;20031;-67
2023/03/21 05:51:04;;;;;;;9.10;3.10;;;8.50;99.90;;;;;;4996706;28;20061;-68
2023/03/21 05:53:29;;;;;;;7.43;2.83;;;8.50;99.90;;;;;;4993088;28;20042;-67
2023/03/21 05:55:55;;;;;;;9.48;2.55;;;8.60;99.90;;;;;;4985041;28;20367;-67
2023/03/21 05:58:21;;;;;;;10.43;3.67;;;8.70;99.90;;;;;;4998839;28;20030;-68
2023/03/21 06:00:47;;;;;;;14.15;4.22;;;8.60;99.90;;;;;;4963215;28;20042;-67
2023/03/21 06:03:13;;;;;;;10.25;3.97;;;8.60;99.90;;;;;;4992342;28;20088;-68
2023/03/21 06:05:38;;;;;;;8.30;2.45;;;8.50;99.90;;;;;;5005356;28;20120;-68
2023/03/21 06:08:04;;;;;;;10.43;3.58;;;8.50;99.90;;;;;;4992816;28;20077;-68
2023/03/21 06:10:30;;;;;;;7.65;3.35;;;8.60;99.90;;;;;;4983845;28;20113;-67
2023/03/21 06:12:56;;;;;;;5.63;2.50;;;8.60;99.90;;;;;;4992188;28;20104;-67
2023/03/21 06:15:22;;;;;;;7.95;3.40;;;8.70;99.90;;;;;;5009638;28;20092;-68
2023/03/21 06:17:48;;;;;;;5.78;3.03;;;8.70;99.90;;;;;;4989064;28;20080;-68
2023/03/21 06:20:14;;;;;;;6.13;2.42;;;8.80;99.90;;;;;;4998234;28;20038;-68
2023/03/21 06:22:40;;;;;;;6.53;2.70;;;8.80;99.90;;;;;;5011991;28;20036;-67
2023/03/21 06:25:07;;;;;;;4.63;3.58;;;9.00;99.90;;;;;;5005773;28;20448;-68
2023/03/21 06:27:34;;;;;;;8.27;2.45;;;9.00;99.90;;;;;;5010736;28;20034;-67
2023/03/21 06:30:00;;;;;;;5.22;2.88;;;9.00;99.90;;;;;;4989470;28;20486;-67
2023/03/21 06:32:27;;;;;;;9.73;3.53;;;9.10;99.90;;;;;;5009618;28;20038;-69
2023/03/21 06:34:52;;;;;;;6.95;3.58;;;9.20;99.90;;;;;;5001637;28;20054;-68
2023/03/21 06:37:18;;;;;;;7.53;4.22;;;9.30;99.90;;;;;;4979262;28;20066;-68
2023/03/21 06:39:45;;;;;;;14.02;3.80;;;9.40;99.90;;;;;;5003410;28;20030;-67
2023/03/21 06:42:12;;;;;;;6.82;3.30;;;9.40;99.90;;;;;;4983754;28;20035;-68
2023/03/21 06:44:38;;;;;;;8.02;3.38;;;9.50;99.90;;;;;;4985029;28;20557;-68
2023/03/21 06:47:04;;;;;;;6.43;3.08;;;9.40;99.90;;;;;;5001862;28;20034;-68
2023/03/21 06:49:30;;;;;;;7.63;3.63;;;9.40;99.90;;;;;;4999230;28;20109;-67
2023/03/21 06:51:56;;;;;;;6.40;3.10;;;9.50;99.90;;;;;;5003945;28;20031;-69
2023/03/21 06:54:22;;;;;;;5.68;3.45;;;9.50;99.90;;;;;;4991519;28;20042;-69
2023/03/21 06:56:48;;;;;;;6.15;3.53;;;9.60;99.90;;;;;;4986669;28;20036;-69
2023/03/21 06:59:14;;;;;;;7.82;3.80;;;9.60;99.90;;;;;;5003369;28;20030;-66
2023/03/21 07:01:41;;;;;;;8.82;3.83;;;9.70;99.90;;;;;;4985258;28;20470;-69
2023/03/21 07:04:08;;;;;;;7.15;3.33;;;9.80;99.90;;;;;;5005136;28;20026;-68
2023/03/21 07:06:34;;;;;;;9.73;3.67;;;9.80;99.90;;;;;;4988904;28;20034;-69
2023/03/21 07:09:01;;;;;;;6.40;3.97;;;9.80;99.90;;;;;;4975072;28;20647;-69
2023/03/21 07:11:27;;;;;;;5.88;3.58;;;9.90;99.90;;;;;;5005783;28;20037;-69
2023/03/21 07:13:53;;;;;;;5.20;3.17;;;9.90;99.90;;;;;;4990396;28;20030;-69
2023/03/21 07:16:20;;;;;;;7.97;2.70;;;10.00;99.90;;;;;;4996586;28;20026;-69
2023/03/21 07:18:46;;;;;;;6.85;3.65;;;10.10;99.90;;;;;;5010045;28;20033;-68
2023/03/21 07:21:13;;;;;;;5.30;3.00;;;10.20;99.90;;;;;;4995090;28;20022;-69
2023/03/21 07:23:39;;;;;;;7.57;2.78;;;10.40;99.90;;;;;;4978945;28;20057;-69
2023/03/21 07:26:05;;;;;;;9.48;2.65;;;10.60;99.90;;;;;;4975070;28;20633;-69
2023/03/21 07:28:32;;;;;;;15.93;3.08;;;10.90;99.90;;;;;;4999179;28;20041;-69
2023/03/21 07:31:01;;;;;;;8.95;3.38;;;10.90;99.90;;;;;;4989464;28;20093;-69
2023/03/21 07:33:27;;;;;;;4.45;2.30;;;11.10;99.90;;;;;;4997675;28;20037;-69
2023/03/21 07:35:56;;;;;;;6.25;2.38;;;11.30;99.90;;;;;;5004119;28;20446;-68
2023/03/21 07:38:22;;;;;;;8.57;3.95;;;11.30;99.90;;;;;;5003433;28;20058;-68
2023/03/21 07:40:48;;;;;;;4.80;3.00;;;11.40;99.90;;;;;;4984324;28;20554;-68
2023/03/21 07:43:16;;;;;;;9.65;4.25;;;11.40;99.90;;;;;;5002938;28;20441;-68
2023/03/21 07:45:43;;;;;;;8.95;3.83;;;11.40;99.90;;;;;;4986037;28;20030;-68
2023/03/21 07:48:11;;;;;;;6.07;2.63;;;11.30;99.90;;;;;;4980965;28;20026;-68
2023/03/21 07:50:39;;;;;;;4.75;2.10;;;11.40;99.90;;;;;;4981318;28;20027;-68
2023/03/21 07:53:05;;;;;;;7.95;2.80;;;11.40;99.90;;;;;;4990085;28;20034;-68
2023/03/21 07:55:33;;;;;;;5.65;2.83;;;11.40;99.90;;;;;;4998304;28;20069;-67
2023/03/21 07:58:03;;;;;;;12.13;4.10;;;11.60;99.90;;;;;;5002983;28;20034;-69
2023/03/21 08:00:29;;;;;;;6.35;2.78;;;11.70;99.90;;;;;;4965027;28;20039;-67
2023/03/21 08:02:57;;;;;;;10.95;3.30;;;11.80;99.90;;;;;;5002766;28;20212;-68
2023/03/21 08:05:32;;;;;;;7.65;3.22;;;11.80;99.90;;;;;;4979241;28;20023;-68
2023/03/21 08:07:57;;;;;;;4.22;2.75;;;11.90;99.90;;;;;;4982613;28;20037;-68
2023/03/21 08:10:23;;;;;;;7.85;2.45;;;11.90;99.90;;;;;;4986376;28;20031;-66
2023/03/21 08:12:49;;;;;;;5.68;3.08;;;11.90;99.90;;;;;;4999396;28;20026;-65
2023/03/21 08:15:16;;;;;;;3.40;2.20;;;11.90;99.90;;;;;;4984546;28;20205;-67
2023/03/21 08:17:44;;;;;;;5.25;2.50;;;12.10;99.90;;;;;;5000739;28;20390;-66
2023/03/21 08:20:15;;;;;;;5.32;2.72;;;12.30;99.90;;;;;;4999501;28;20023;-67
2023/03/21 08:22:42;;;;;;;7.63;2.80;;;12.40;99.90;;;;;;5000315;28;20030;-67
2023/03/21 08:25:12;;;;;;;5.75;2.08;;;12.50;99.90;;;;;;4981885;28;20541;-67
2023/03/21 08:27:43;;;;;;;7.32;2.55;;;12.40;99.90;;;;;;4982098;28;20022;-67
2023/03/21 08:30:11;;;;;;;8.73;2.83;;;12.60;99.90;;;;;;4999922;28;20034;-67
2023/03/21 08:32:39;;;;;;;5.32;3.00;;;12.60;99.90;;;;;;4997432;28;20038;-67
2023/03/21 08:35:09;;;;;;;25.85;5.15;;;12.50;99.90;;;;;;4983365;28;20042;-66
2023/03/21 08:37:39;;;;;;;9.57;3.00;;;12.60;99.90;;;;;;4991312;28;20041;-67
2023/03/21 08:40:14;;;;;;;4.97;2.50;;;12.70;99.90;;;;;;4984735;28;20038;-67
2023/03/21 08:42:42;;;;;;;5.50;3.08;;;12.70;99.90;;;;;;4981929;28;20135;-67
2023/03/21 08:45:10;;;;;;;3.88;2.38;;;12.80;99.90;;;;;;5004739;28;20049;-67
2023/03/21 08:47:36;;;;;;;6.25;3.08;;;12.60;99.90;;;;;;4995388;28;20037;-67
2023/03/21 08:50:05;;;;;;;12.40;4.28;;;12.80;99.90;;;;;;4986666;28;20529;-67
2023/03/21 08:52:31;;;;;;;6.80;2.63;;;12.80;99.90;;;;;;4978874;28;20043;-68
2023/03/21 08:54:57;;;;;;;25.05;5.75;;;12.90;99.90;;;;;;5003064;28;20033;-67
2023/03/21 08:57:45;;;;;;;92.05;20.90;;;12.90;99.90;;;;;;4979452;28;20381;-67
2023/03/21 09:00:16;;;;;;;53.40;16.15;;;12.80;99.90;;;;;;4999931;28;20030;-67
2023/03/21 09:02:47;;;;;;;5.88;4.07;;;13.20;99.90;;;;;;4994431;28;20401;-67
2023/03/21 09:05:15;;;;;;;22.00;4.93;;;13.30;99.90;;;;;;5005349;28;20084;-67
2023/03/21 09:07:42;;;;;;;27.10;6.28;;;13.20;99.90;;;;;;4987900;23;20068;-69
2023/03/21 09:10:15;;;;;;;8.38;3.03;;;13.30;99.90;;;;;;4981009;28;20029;-69
2023/03/21 09:12:42;;;;;;;7.50;2.63;;;13.50;99.90;;;;;;4973075;28;20453;-69
2023/03/21 09:15:11;;;;;;;15.38;4.38;;;13.60;99.90;;;;;;5001949;28;20470;-70
2023/03/21 09:17:41;;;;;;;19.33;4.93;;;13.30;99.90;;;;;;5003592;28;20047;-70
2023/03/21 09:20:20;;;;;;;17.80;5.55;;;13.20;99.90;;;;;;4985143;28;20026;-70
2023/03/21 09:22:53;;;;;;;6.35;3.08;;;13.10;99.90;;;;;;5003798;28;20038;-70
2023/03/21 09:25:19;;;;;;;3.95;1.88;;;13.00;99.90;;;;;;5001964;28;20026;-70
2023/03/21 09:27:45;;;;;;;4.25;2.55;;;13.10;99.90;;;;;;5006192;28;20128;-70
2023/03/21 09:30:18;;;;;;;5.00;1.98;;;13.50;99.90;;;;;;5002068;28;20423;-70
2023/03/21 09:32:49;;;;;;;8.48;2.38;;;13.60;99.90;;;;;;4985716;28;20042;-70
2023/03/21 09:35:19;;;;;;;4.80;1.90;;;13.30;99.90;;;;;;4985074;28;20028;-71
2023/03/21 09:37:48;;;;;;;6.30;2.97;;;13.20;99.90;;;;;;4989299;28;20045;-70
2023/03/21 09:40:30;;;;;;;3.70;2.03;;;13.30;99.90;;;;;;5005783;28;20026;-70
2023/03/21 09:43:14;;;;;;;5.18;2.40;;;13.40;99.90;;;;;;4990833;28;20026;-69
2023/03/21 09:46:25;;;;;;;6.18;2.45;;;13.60;99.90;;;;;;4990402;28;20030;-69
2023/03/21 09:49:06;;;;;;;4.60;2.17;;;13.70;99.90;;;;;;4993544;28;20113;-69
2023/03/21 09:51:39;;;;;;;4.25;1.83;;;13.60;99.90;;;;;;5012691;28;20026;-69
2023/03/21 09:54:22;;;;;;;5.30;2.00;;;13.50;99.90;;;;;;4987266;28;20061;-70
2023/03/21 09:56:53;;;;;;;15.38;2.50;;;13.70;99.90;;;;;;4987739;28;20023;-70
2023/03/21 09:59:30;;;;;;;5.55;2.08;;;13.70;99.90;;;;;;4980398;28;20239;-68
2023/03/21 10:01:59;;;;;;;3.85;2.53;;;13.60;99.90;;;;;;4958335;28;20035;-70
2023/03/21 10:04:26;;;;;;;4.53;2.15;;;13.70;99.90;;;;;;4984251;28;20034;-70
2023/03/21 10:07:02;;;;;;;3.75;1.63;;;13.80;99.90;;;;;;4974765;28;20097;-69
2023/03/21 10:09:31;;;;;;;5.30;2.10;;;13.80;99.90;;;;;;4993047;28;20037;-69
2023/03/21 10:12:13;;;;;;;10.45;1.90;;;13.80;99.90;;;;;;4981222;28;20034;-70
2023/03/21 10:14:53;;;;;;;3.95;1.50;;;13.70;99.90;;;;;;5001268;28;20050;-68
2023/03/21 10:17:42;;;;;;;6.38;1.83;;;13.70;99.90;;;;;;5010050;28;20041;-69
2023/03/21 10:20:24;;;;;;;5.18;1.80;;;13.70;99.90;;;;;;4996216;28;20120;-69
2023/03/21 10:22:57;;;;;;;6.20;2.13;;;13.70;99.90;;;;;;4963462;28;20117;-69
2023/03/21 10:25:43;;;;;;;6.03;2.13;;;13.70;99.90;;;;;;4987836;28;20061;-69
2023/03/21 10:28:19;;;;;;;6.72;2.40;;;13.60;99.90;;;;;;4992920;28;20026;-69
2023/03/21 10:30:53;;;;;;;5.55;1.80;;;13.50;99.90;;;;;;4988014;28;20041;-69
2023/03/21 10:33:31;;;;;;;14.05;1.92;;;13.70;99.90;;;;;;4991483;28;20045;-69
2023/03/21 10:36:19;;;;;;;19.40;1.80;;;13.70;99.90;;;;;;4999030;28;20034;-69
2023/03/21 10:39:07;;;;;;;4.57;1.50;;;13.80;99.90;;;;;;4989921;28;20038;-69
2023/03/21 10:41:33;;;;;;;3.40;1.65;;;13.90;99.90;;;;;;4976705;28;20367;-69
2023/03/21 10:44:16;;;;;;;2.47;1.40;;;14.10;99.90;;;;;;5003812;28;20018;-69
2023/03/21 10:47:08;;;;;;;7.80;2.78;;;13.90;99.90;;;;;;4995032;28;20034;-69
2023/03/21 10:49:38;;;;;;;6.10;1.90;;;13.90;99.90;;;;;;4997402;28;20050;-69
2023/03/21 10:52:17;;;;;;;7.45;2.38;;;13.90;99.90;;;;;;4994290;28;20034;-69
2023/03/21 10:54:44;;;;;;;3.13;1.67;;;14.10;99.90;;;;;;4969866;28;20041;-72
2023/03/21 10:57:19;;;;;;;6.22;3.03;;;14.00;99.90;;;;;;4992979;28;20115;-69
2023/03/21 10:59:59;;;;;;;5.45;2.78;;;14.00;99.90;;;;;;4986863;28;20045;-69
2023/03/21 11:02:31;;;;;;;5.47;2.25;;;14.10;99.90;;;;;;4991904;28;20027;-69
2023/03/21 11:05:18;;;;;;;7.97;3.55;;;14.00;99.90;;;;;;4976814;28;20033;-69
2023/03/21 11:07:44;;;;;;;3.42;1.70;;;14.10;99.90;;;;;;4979585;28;20033;-69
2023/03/21 11:10:27;;;;;;;6.55;1.40;;;14.10;99.90;;;;;;4985976;28;20382;-69
2023/03/21 11:12:57;;;;;;;2.70;1.70;;;14.20;99.90;;;;;;4979099;28;20057;-70
2023/03/21 11:15:32;;;;;;;8.85;1.50;;;14.30;99.90;;;;;;5004402;28;20044;-69
2023/03/21 11:18:11;;;;;;;4.68;1.73;;;14.20;99.90;;;;;;4990494;28;20022;-70
2023/03/21 11:20:58;;;;;;;4.40;1.70;;;14.10;99.90;;;;;;5004187;28;20038;-70
2023/03/21 11:23:31;;;;;;;2.63;1.48;;;14.10;99.90;;;;;;4991480;28;20105;-67
2023/03/21 11:26:01;;;;;;;3.03;1.40;;;14.00;99.90;;;;;;4987926;28;20121;-65
2023/03/21 11:28:37;;;;;;;2.80;1.52;;;13.80;99.90;;;;;;4990501;28;20225;-73
2023/03/21 11:31:05;;;;;;;4.20;1.35;;;13.90;99.90;;;;;;4988585;28;20481;-74
2023/03/21 11:33:55;;;;;;;4.63;1.75;;;14.20;99.90;;;;;;5006980;28;20061;-66
2023/03/21 11:36:21;;;;;;;4.85;1.55;;;14.50;99.90;;;;;;5008050;28;20034;-66
2023/03/21 11:39:00;;;;;;;2.85;1.30;;;14.20;99.90;;;;;;5001966;28;20041;-66
2023/03/21 11:41:32;;;;;;;3.60;1.83;;;14.60;99.90;;;;;;4991602;28;20061;-65
2023/03/21 11:44:01;;;;;;;5.28;2.13;;;14.50;99.90;;;;;;4983182;28;20046;-65
2023/03/21 11:46:38;;;;;;;3.38;1.55;;;14.30;99.90;;;;;;4975065;28;20040;-66
2023/03/21 11:49:04;;;;;;;14.13;2.47;;;14.50;99.90;;;;;;4983377;28;20034;-66
2023/03/21 11:51:50;;;;;;;4.32;1.75;;;14.70;99.90;;;;;;4975073;28;20122;-66
2023/03/21 11:54:15;;;;;;;2.60;1.45;;;14.50;99.90;;;;;;4997888;28;20457;-65
2023/03/21 11:56:57;;;;;;;4.38;1.52;;;14.80;99.90;;;;;;4992526;28;20065;-56
2023/03/21 11:59:51;;;;;;;3.55;1.98;;;14.90;99.90;;;;;;4982876;28;20050;-66
2023/03/21 12:02:40;;;;;;;4.07;1.35;;;14.70;99.90;;;;;;4974406;28;20050;-65
2023/03/21 12:05:22;;;;;;;2.80;1.42;;;15.00;99.90;;;;;;4989001;28;20495;-66
2023/03/21 12:08:11;;;;;;;5.32;1.80;;;15.10;99.90;;;;;;4964138;28;20092;-67
2023/03/21 12:11:04;;;;;;;2.72;1.30;;;15.10;99.90;;;;;;4998395;28;20084;-67
2023/03/21 12:13:45;;;;;;;5.38;1.75;;;14.90;99.90;;;;;;4982677;28;20061;-67
2023/03/21 12:16:47;;;;;;;2.83;1.35;;;15.00;99.90;;;;;;4988470;28;20022;-66
2023/03/21 12:19:51;;;;;;;;;;;14.90;99.90;;;;;;4984832;28;20026;-66
2023/03/21 12:23:05;;;;;;;3.90;1.48;;;15.00;99.90;;;;;;4973337;28;20402;-66
2023/03/21 12:25:58;;;;;;;6.57;2.13;;;15.30;99.90;;;;;;4997190;28;20038;-67
2023/03/21 12:29:03;;;;;;;5.50;2.08;;;15.30;99.90;;;;;;4998940;28;20572;-67
2023/03/21 12:32:24;;;;;;;6.10;1.55;;;15.50;99.90;;;;;;4990013;28;20129;-67
2023/03/21 12:35:27;;;;;;;2.92;1.60;;;15.90;99.30;;;;;;4967531;28;20038;-68
2023/03/21 12:38:09;;;;;;;4.22;1.65;;;15.90;99.60;;;;;;4994764;28;20034;-67
2023/03/21 12:41:04;;;;;;;8.18;1.65;;;16.10;98.80;;;;;;4981866;28;20030;-69
2023/03/21 12:43:48;;;;;;;3.00;1.42;;;16.00;99.00;;;;;;4981419;28;20026;-68
2023/03/21 12:46:42;;;;;;;2.35;1.17;;;15.60;99.60;;;;;;5005819;28;20038;-69
2023/03/21 12:49:28;;;;;;;3.72;1.25;;;15.50;99.80;;;;;;4987165;28;20069;-69
2023/03/21 12:52:09;;;;;;;6.20;2.10;;;15.50;99.30;;;;;;4986758;28;20038;-69
2023/03/21 12:54:58;;;;;;;4.13;1.48;;;15.40;99.50;;;;;;4982080;28;20165;-70
2023/03/21 12:57:41;;;;;;;1.92;1.20;;;15.80;98.90;;;;;;4990200;28;20532;-68
2023/03/21 13:00:20;;;;;;;2.53;1.10;;;15.80;99.00;;;;;;4993080;28;20027;-69
2023/03/21 13:03:17;;;;;;;2.42;1.02;;;15.70;99.30;;;;;;4991866;28;20030;-68
2023/03/21 13:05:54;;;;;;;2.42;1.23;;;15.60;98.90;;;;;;4982775;28;20041;-68
2023/03/21 13:08:30;;;;;;;3.65;1.33;;;15.30;99.30;;;;;;5001436;28;20033;-68
2023/03/21 13:10:59;;;;;;;1.90;1.17;;;15.30;99.70;;;;;;4982354;28;20390;-68
2023/03/21 13:13:55;;;;;;;3.25;1.08;;;15.20;99.60;;;;;;4997617;28;20104;-68
2023/03/21 13:16:28;;;;;;;6.32;1.38;;;15.20;99.50;;;;;;5006829;28;20041;-67
2023/03/21 13:19:33;;;;;;;2.10;1.00;;;15.10;99.70;;;;;;4996030;28;20042;-68
2023/03/21 13:22:27;;;;;;;3.30;1.02;;;15.10;99.80;;;;;;4953790;28;20038;-68
2023/03/21 13:25:16;;;;;;;3.33;1.13;;;15.00;99.80;;;;;;4990024;28;20033;-68
2023/03/21 13:27:46;;;;;;;4.22;1.10;;;14.90;99.70;;;;;;4958226;28;20081;-68
2023/03/21 13:30:26;;;;;;;4.00;1.20;;;14.90;99.90;;;;;;4985074;28;20036;-68